sensor_id;sensor_type;location;lat;lon;timestamp;P1;durP1;ratioP1;P2;durP2;ratioP2
53775;SDS011;44276;49.534;6.378;2023-03-23T00:00:07;1.85;;;0.68;;
53775;SDS011;44276;49.534;6.378;2023-03-23T00:02:35;1.13;;;0.55;;
53775;SDS011;44276;49.534;6.378;2023-03-23T00:05:03;2.17;;;0.40;;
53775;SDS011;44276;49.534;6.378;2023-03-23T00:07:33;4.18;;;0.90;;
53775;SDS011;44276;49.534;6.378;2023-03-23T00:10:01;1.70;;;0.50;;
53775;SDS011;44276;49.534;6.378;2023-03-23T00:12:30;4.03;;;0.80;;
53775;SDS011;44276;49.534;6.378;2023-03-23T00:15:00;1.80;;;0.70;;
53775;SDS011;44276;49.534;6.378;2023-03-23T00:17:29;1.52;;;0.50;;
53775;SDS011;44276;49.534;6.378;2023-03-23T00:19:58;0.93;;;0.40;;
53775;SDS011;44276;49.534;6.378;2023-03-23T00:22:28;0.38;;;0.38;;
53775;SDS011;44276;49.534;6.378;2023-03-23T00:24:55;1.25;;;0.40;;
53775;SDS011;44276;49.534;6.378;2023-03-23T00:27:22;0.85;;;0.47;;
53775;SDS011;44276;49.534;6.378;2023-03-23T00:29:50;0.73;;;0.35;;
53775;SDS011;44276;49.534;6.378;2023-03-23T00:32:20;2.15;;;0.60;;
53775;SDS011;44276;49.534;6.378;2023-03-23T00:34:52;0.50;;;0.47;;
53775;SDS011;44276;49.534;6.378;2023-03-23T00:37:20;0.82;;;0.45;;
53775;SDS011;44276;49.534;6.378;2023-03-23T00:39:47;1.95;;;0.50;;
53775;SDS011;44276;49.534;6.378;2023-03-23T00:42:16;2.15;;;0.80;;
53775;SDS011;44276;49.534;6.378;2023-03-23T00:44:46;1.48;;;0.73;;
53775;SDS011;44276;49.534;6.378;2023-03-23T00:47:13;0.88;;;0.52;;
53775;SDS011;44276;49.534;6.378;2023-03-23T00:49:43;1.10;;;0.60;;
53775;SDS011;44276;49.534;6.378;2023-03-23T00:52:10;1.17;;;0.50;;
53775;SDS011;44276;49.534;6.378;2023-03-23T00:54:38;1.20;;;0.47;;
53775;SDS011;44276;49.534;6.378;2023-03-23T00:57:05;1.13;;;0.70;;
53775;SDS011;44276;49.534;6.378;2023-03-23T00:59:32;0.70;;;0.40;;
53775;SDS011;44276;49.534;6.378;2023-03-23T01:01:59;1.08;;;0.30;;
53775;SDS011;44276;49.534;6.378;2023-03-23T01:04:26;1.02;;;0.47;;
53775;SDS011;44276;49.534;6.378;2023-03-23T01:06:57;1.35;;;0.70;;
53775;SDS011;44276;49.534;6.378;2023-03-23T01:09:26;2.45;;;0.98;;
53775;SDS011;44276;49.534;6.378;2023-03-23T01:11:53;1.45;;;0.70;;
53775;SDS011;44276;49.534;6.378;2023-03-23T01:14:21;3.05;;;0.82;;
53775;SDS011;44276;49.534;6.378;2023-03-23T01:16:50;1.00;;;0.50;;
53775;SDS011;44276;49.534;6.378;2023-03-23T01:19:17;11.35;;;0.88;;
53775;SDS011;44276;49.534;6.378;2023-03-23T01:21:44;2.72;;;0.65;;
53775;SDS011;44276;49.534;6.378;2023-03-23T01:24:13;0.98;;;0.63;;
53775;SDS011;44276;49.534;6.378;2023-03-23T01:26:40;2.60;;;1.45;;
53775;SDS011;44276;49.534;6.378;2023-03-23T01:29:07;1.10;;;0.80;;
53775;SDS011;44276;49.534;6.378;2023-03-23T01:31:34;3.80;;;1.42;;
53775;SDS011;44276;49.534;6.378;2023-03-23T01:34:02;2.08;;;0.70;;
53775;SDS011;44276;49.534;6.378;2023-03-23T01:36:30;1.13;;;0.60;;
53775;SDS011;44276;49.534;6.378;2023-03-23T01:38:58;1.40;;;0.88;;
53775;SDS011;44276;49.534;6.378;2023-03-23T01:41:29;2.40;;;1.13;;
53775;SDS011;44276;49.534;6.378;2023-03-23T01:43:58;2.10;;;1.00;;
53775;SDS011;44276;49.534;6.378;2023-03-23T01:46:30;2.67;;;0.90;;
53775;SDS011;44276;49.534;6.378;2023-03-23T01:49:00;3.13;;;1.25;;
53775;SDS011;44276;49.534;6.378;2023-03-23T01:51:34;1.17;;;1.08;;
53775;SDS011;44276;49.534;6.378;2023-03-23T01:54:07;3.15;;;1.10;;
53775;SDS011;44276;49.534;6.378;2023-03-23T01:56:47;1.85;;;1.13;;
53775;SDS011;44276;49.534;6.378;2023-03-23T01:59:20;2.80;;;0.77;;
53775;SDS011;44276;49.534;6.378;2023-03-23T02:01:50;2.40;;;0.93;;
53775;SDS011;44276;49.534;6.378;2023-03-23T02:04:19;2.33;;;1.13;;
53775;SDS011;44276;49.534;6.378;2023-03-23T02:06:50;2.78;;;0.90;;
53775;SDS011;44276;49.534;6.378;2023-03-23T02:09:19;1.65;;;0.90;;
53775;SDS011;44276;49.534;6.378;2023-03-23T02:11:48;1.73;;;1.02;;
53775;SDS011;44276;49.534;6.378;2023-03-23T02:14:16;2.53;;;0.77;;
53775;SDS011;44276;49.534;6.378;2023-03-23T02:16:45;1.73;;;1.00;;
53775;SDS011;44276;49.534;6.378;2023-03-23T02:19:26;1.58;;;0.85;;
53775;SDS011;44276;49.534;6.378;2023-03-23T02:26:06;1.65;;;1.05;;
53775;SDS011;44276;49.534;6.378;2023-03-23T02:29:10;1.80;;;1.38;;
53775;SDS011;44276;49.534;6.378;2023-03-23T02:32:04;5.20;;;1.50;;
53775;SDS011;44276;49.534;6.378;2023-03-23T02:34:56;1.88;;;1.15;;
53775;SDS011;44276;49.534;6.378;2023-03-23T02:37:28;2.58;;;1.17;;
53775;SDS011;44276;49.534;6.378;2023-03-23T02:40:06;2.10;;;1.17;;
53775;SDS011;44276;49.534;6.378;2023-03-23T02:42:42;2.88;;;1.60;;
53775;SDS011;44276;49.534;6.378;2023-03-23T02:45:13;1.63;;;1.20;;
53775;SDS011;44276;49.534;6.378;2023-03-23T02:47:43;1.88;;;1.33;;
53775;SDS011;44276;49.534;6.378;2023-03-23T02:50:14;3.65;;;1.13;;
53775;SDS011;44276;49.534;6.378;2023-03-23T02:52:46;5.13;;;1.40;;
53775;SDS011;44276;49.534;6.378;2023-03-23T02:55:16;3.40;;;1.38;;
53775;SDS011;44276;49.534;6.378;2023-03-23T02:57:48;5.25;;;1.85;;
53775;SDS011;44276;49.534;6.378;2023-03-23T03:00:19;3.45;;;1.55;;
53775;SDS011;44276;49.534;6.378;2023-03-23T03:02:47;1.95;;;1.48;;
53775;SDS011;44276;49.534;6.378;2023-03-23T03:05:23;3.03;;;1.40;;
53775;SDS011;44276;49.534;6.378;2023-03-23T03:08:10;3.60;;;1.75;;
53775;SDS011;44276;49.534;6.378;2023-03-23T03:10:46;1.70;;;0.93;;
53775;SDS011;44276;49.534;6.378;2023-03-23T03:13:24;3.85;;;1.65;;
53775;SDS011;44276;49.534;6.378;2023-03-23T03:16:04;3.55;;;1.88;;
53775;SDS011;44276;49.534;6.378;2023-03-23T03:18:42;3.22;;;1.48;;
53775;SDS011;44276;49.534;6.378;2023-03-23T03:21:19;2.20;;;1.92;;
53775;SDS011;44276;49.534;6.378;2023-03-23T03:23:52;2.38;;;1.75;;
53775;SDS011;44276;49.534;6.378;2023-03-23T03:26:24;3.13;;;1.65;;
53775;SDS011;44276;49.534;6.378;2023-03-23T03:28:54;1.88;;;1.50;;
53775;SDS011;44276;49.534;6.378;2023-03-23T03:31:22;2.75;;;1.55;;
53775;SDS011;44276;49.534;6.378;2023-03-23T03:33:55;2.88;;;1.63;;
53775;SDS011;44276;49.534;6.378;2023-03-23T03:36:28;3.80;;;1.27;;
53775;SDS011;44276;49.534;6.378;2023-03-23T03:39:00;3.53;;;1.60;;
53775;SDS011;44276;49.534;6.378;2023-03-23T03:41:32;4.10;;;1.70;;
53775;SDS011;44276;49.534;6.378;2023-03-23T03:44:00;2.80;;;1.50;;
53775;SDS011;44276;49.534;6.378;2023-03-23T03:46:27;3.40;;;1.52;;
53775;SDS011;44276;49.534;6.378;2023-03-23T03:48:56;3.08;;;1.80;;
53775;SDS011;44276;49.534;6.378;2023-03-23T03:51:23;6.65;;;1.60;;
53775;SDS011;44276;49.534;6.378;2023-03-23T03:53:52;2.15;;;1.63;;
53775;SDS011;44276;49.534;6.378;2023-03-23T03:56:21;5.03;;;1.30;;
53775;SDS011;44276;49.534;6.378;2023-03-23T03:58:49;2.17;;;1.70;;
53775;SDS011;44276;49.534;6.378;2023-03-23T04:01:16;5.05;;;2.38;;
53775;SDS011;44276;49.534;6.378;2023-03-23T04:03:46;5.00;;;2.38;;
53775;SDS011;44276;49.534;6.378;2023-03-23T04:06:13;2.85;;;1.90;;
53775;SDS011;44276;49.534;6.378;2023-03-23T04:08:41;3.05;;;2.13;;
53775;SDS011;44276;49.534;6.378;2023-03-23T04:11:11;3.10;;;1.65;;
53775;SDS011;44276;49.534;6.378;2023-03-23T04:13:40;4.82;;;1.75;;
53775;SDS011;44276;49.534;6.378;2023-03-23T04:16:08;2.00;;;1.70;;
53775;SDS011;44276;49.534;6.378;2023-03-23T04:18:35;2.45;;;1.60;;
53775;SDS011;44276;49.534;6.378;2023-03-23T04:21:03;4.15;;;2.40;;
53775;SDS011;44276;49.534;6.378;2023-03-23T04:23:33;4.82;;;1.60;;
53775;SDS011;44276;49.534;6.378;2023-03-23T04:26:02;4.18;;;2.30;;
53775;SDS011;44276;49.534;6.378;2023-03-23T04:28:31;3.78;;;1.45;;
53775;SDS011;44276;49.534;6.378;2023-03-23T04:30:59;3.05;;;2.35;;
53775;SDS011;44276;49.534;6.378;2023-03-23T04:33:28;3.90;;;2.17;;
53775;SDS011;44276;49.534;6.378;2023-03-23T04:35:58;3.33;;;1.58;;
53775;SDS011;44276;49.534;6.378;2023-03-23T04:38:28;3.35;;;1.80;;
53775;SDS011;44276;49.534;6.378;2023-03-23T04:40:57;2.63;;;1.70;;
53775;SDS011;44276;49.534;6.378;2023-03-23T04:43:27;2.95;;;1.67;;
53775;SDS011;44276;49.534;6.378;2023-03-23T04:45:56;3.33;;;1.38;;
53775;SDS011;44276;49.534;6.378;2023-03-23T04:48:28;4.00;;;2.17;;
53775;SDS011;44276;49.534;6.378;2023-03-23T04:50:58;3.33;;;1.80;;
53775;SDS011;44276;49.534;6.378;2023-03-23T04:53:27;9.30;;;3.10;;
53775;SDS011;44276;49.534;6.378;2023-03-23T04:55:55;3.55;;;2.28;;
53775;SDS011;44276;49.534;6.378;2023-03-23T04:58:22;3.33;;;2.05;;
53775;SDS011;44276;49.534;6.378;2023-03-23T05:00:50;7.07;;;1.88;;
53775;SDS011;44276;49.534;6.378;2023-03-23T05:03:18;4.03;;;2.10;;
53775;SDS011;44276;49.534;6.378;2023-03-23T05:05:46;3.28;;;2.22;;
53775;SDS011;44276;49.534;6.378;2023-03-23T05:08:17;3.03;;;1.88;;
53775;SDS011;44276;49.534;6.378;2023-03-23T05:10:49;18.25;;;2.75;;
53775;SDS011;44276;49.534;6.378;2023-03-23T05:13:18;3.63;;;2.25;;
53775;SDS011;44276;49.534;6.378;2023-03-23T05:15:45;4.93;;;1.63;;
53775;SDS011;44276;49.534;6.378;2023-03-23T05:18:12;3.25;;;2.05;;
53775;SDS011;44276;49.534;6.378;2023-03-23T05:20:41;3.58;;;1.75;;
53775;SDS011;44276;49.534;6.378;2023-03-23T05:23:11;2.50;;;2.03;;
53775;SDS011;44276;49.534;6.378;2023-03-23T05:25:39;3.42;;;2.20;;
53775;SDS011;44276;49.534;6.378;2023-03-23T05:28:06;3.45;;;1.75;;
53775;SDS011;44276;49.534;6.378;2023-03-23T05:30:34;6.90;;;2.35;;
53775;SDS011;44276;49.534;6.378;2023-03-23T05:33:04;4.05;;;2.58;;
53775;SDS011;44276;49.534;6.378;2023-03-23T05:35:31;3.35;;;1.60;;
53775;SDS011;44276;49.534;6.378;2023-03-23T05:38:00;4.47;;;2.70;;
53775;SDS011;44276;49.534;6.378;2023-03-23T05:40:28;4.50;;;2.40;;
53775;SDS011;44276;49.534;6.378;2023-03-23T05:42:55;4.07;;;2.33;;
53775;SDS011;44276;49.534;6.378;2023-03-23T05:45:24;3.47;;;2.03;;
53775;SDS011;44276;49.534;6.378;2023-03-23T05:47:51;3.95;;;1.88;;
53775;SDS011;44276;49.534;6.378;2023-03-23T05:50:19;5.65;;;2.47;;
53775;SDS011;44276;49.534;6.378;2023-03-23T05:52:46;2.72;;;2.00;;
53775;SDS011;44276;49.534;6.378;2023-03-23T05:55:15;2.70;;;1.70;;
53775;SDS011;44276;49.534;6.378;2023-03-23T05:57:42;5.70;;;2.22;;
53775;SDS011;44276;49.534;6.378;2023-03-23T06:00:09;4.80;;;2.60;;
53775;SDS011;44276;49.534;6.378;2023-03-23T06:02:46;3.50;;;1.80;;
53775;SDS011;44276;49.534;6.378;2023-03-23T06:05:14;3.70;;;2.25;;
53775;SDS011;44276;49.534;6.378;2023-03-23T06:07:42;3.05;;;2.03;;
53775;SDS011;44276;49.534;6.378;2023-03-23T06:10:09;3.28;;;1.83;;
53775;SDS011;44276;49.534;6.378;2023-03-23T06:12:38;2.25;;;1.17;;
53775;SDS011;44276;49.534;6.378;2023-03-23T06:15:07;6.93;;;2.65;;
53775;SDS011;44276;49.534;6.378;2023-03-23T06:17:35;4.45;;;1.95;;
53775;SDS011;44276;49.534;6.378;2023-03-23T06:20:02;2.10;;;1.30;;
53775;SDS011;44276;49.534;6.378;2023-03-23T06:22:35;3.65;;;1.50;;
53775;SDS011;44276;49.534;6.378;2023-03-23T06:25:04;5.47;;;2.40;;
53775;SDS011;44276;49.534;6.378;2023-03-23T06:27:33;3.50;;;1.55;;
53775;SDS011;44276;49.534;6.378;2023-03-23T06:30:03;3.33;;;1.23;;
53775;SDS011;44276;49.534;6.378;2023-03-23T06:32:32;3.70;;;1.65;;
53775;SDS011;44276;49.534;6.378;2023-03-23T06:35:00;1.05;;;0.90;;
53775;SDS011;44276;49.534;6.378;2023-03-23T06:37:30;2.50;;;1.10;;
53775;SDS011;44276;49.534;6.378;2023-03-23T06:39:57;2.35;;;1.10;;
53775;SDS011;44276;49.534;6.378;2023-03-23T06:42:24;5.95;;;1.35;;
53775;SDS011;44276;49.534;6.378;2023-03-23T06:44:51;2.13;;;0.98;;
53775;SDS011;44276;49.534;6.378;2023-03-23T06:47:23;5.35;;;1.35;;
53775;SDS011;44276;49.534;6.378;2023-03-23T06:49:51;2.85;;;1.40;;
53775;SDS011;44276;49.534;6.378;2023-03-23T06:52:18;1.90;;;1.15;;
53775;SDS011;44276;49.534;6.378;2023-03-23T06:54:45;2.42;;;0.77;;
53775;SDS011;44276;49.534;6.378;2023-03-23T06:57:12;3.45;;;1.10;;
53775;SDS011;44276;49.534;6.378;2023-03-23T06:59:39;2.78;;;0.90;;
53775;SDS011;44276;49.534;6.378;2023-03-23T07:02:08;4.13;;;1.65;;
53775;SDS011;44276;49.534;6.378;2023-03-23T07:04:37;4.35;;;1.70;;
53775;SDS011;44276;49.534;6.378;2023-03-23T07:07:05;2.15;;;1.23;;
53775;SDS011;44276;49.534;6.378;2023-03-23T07:09:36;2.25;;;1.05;;
53775;SDS011;44276;49.534;6.378;2023-03-23T07:12:03;3.67;;;1.58;;
53775;SDS011;44276;49.534;6.378;2023-03-23T07:14:31;2.33;;;1.35;;
53775;SDS011;44276;49.534;6.378;2023-03-23T07:16:58;5.63;;;1.08;;
53775;SDS011;44276;49.534;6.378;2023-03-23T07:19:26;15.90;;;2.38;;
53775;SDS011;44276;49.534;6.378;2023-03-23T07:21:54;1.80;;;1.35;;
53775;SDS011;44276;49.534;6.378;2023-03-23T07:24:22;2.97;;;1.45;;
53775;SDS011;44276;49.534;6.378;2023-03-23T07:26:49;6.80;;;1.40;;
53775;SDS011;44276;49.534;6.378;2023-03-23T07:29:16;4.60;;;1.58;;
53775;SDS011;44276;49.534;6.378;2023-03-23T07:31:43;1.70;;;1.52;;
53775;SDS011;44276;49.534;6.378;2023-03-23T07:34:10;5.35;;;1.80;;
53775;SDS011;44276;49.534;6.378;2023-03-23T07:36:37;2.55;;;1.23;;
53775;SDS011;44276;49.534;6.378;2023-03-23T07:39:05;6.45;;;1.77;;
53775;SDS011;44276;49.534;6.378;2023-03-23T07:41:32;3.22;;;1.65;;
53775;SDS011;44276;49.534;6.378;2023-03-23T07:44:00;3.17;;;1.77;;
53775;SDS011;44276;49.534;6.378;2023-03-23T07:46:27;3.25;;;2.15;;
53775;SDS011;44276;49.534;6.378;2023-03-23T07:48:54;5.97;;;1.33;;
53775;SDS011;44276;49.534;6.378;2023-03-23T07:51:22;2.28;;;1.23;;
53775;SDS011;44276;49.534;6.378;2023-03-23T07:53:49;3.90;;;1.13;;
53775;SDS011;44276;49.534;6.378;2023-03-23T07:56:18;2.33;;;1.45;;
53775;SDS011;44276;49.534;6.378;2023-03-23T07:58:46;3.55;;;1.35;;
53775;SDS011;44276;49.534;6.378;2023-03-23T08:01:13;2.63;;;1.20;;
53775;SDS011;44276;49.534;6.378;2023-03-23T08:03:41;2.67;;;1.58;;
53775;SDS011;44276;49.534;6.378;2023-03-23T08:06:09;5.35;;;1.38;;
53775;SDS011;44276;49.534;6.378;2023-03-23T08:08:36;2.53;;;1.10;;
53775;SDS011;44276;49.534;6.378;2023-03-23T08:11:05;2.40;;;1.33;;
53775;SDS011;44276;49.534;6.378;2023-03-23T08:13:34;2.50;;;1.45;;
53775;SDS011;44276;49.534;6.378;2023-03-23T08:16:02;2.50;;;1.38;;
53775;SDS011;44276;49.534;6.378;2023-03-23T08:18:29;5.20;;;2.20;;
53775;SDS011;44276;49.534;6.378;2023-03-23T08:20:59;2.30;;;1.38;;
53775;SDS011;44276;49.534;6.378;2023-03-23T08:23:26;2.70;;;1.38;;
53775;SDS011;44276;49.534;6.378;2023-03-23T08:25:54;21.05;;;1.23;;
53775;SDS011;44276;49.534;6.378;2023-03-23T08:28:21;3.97;;;1.50;;
53775;SDS011;44276;49.534;6.378;2023-03-23T08:30:50;3.60;;;1.55;;
53775;SDS011;44276;49.534;6.378;2023-03-23T08:33:17;2.38;;;1.40;;
53775;SDS011;44276;49.534;6.378;2023-03-23T08:35:53;2.38;;;1.15;;
53775;SDS011;44276;49.534;6.378;2023-03-23T08:38:22;1.35;;;0.98;;
53775;SDS011;44276;49.534;6.378;2023-03-23T08:40:49;2.92;;;1.30;;
53775;SDS011;44276;49.534;6.378;2023-03-23T08:43:17;2.55;;;1.38;;
53775;SDS011;44276;49.534;6.378;2023-03-23T08:45:44;2.83;;;1.00;;
53775;SDS011;44276;49.534;6.378;2023-03-23T08:48:12;2.38;;;1.25;;
53775;SDS011;44276;49.534;6.378;2023-03-23T08:50:40;2.28;;;1.15;;
53775;SDS011;44276;49.534;6.378;2023-03-23T08:53:07;3.97;;;1.00;;
53775;SDS011;44276;49.534;6.378;2023-03-23T08:55:34;1.95;;;1.30;;
53775;SDS011;44276;49.534;6.378;2023-03-23T08:58:01;2.30;;;1.23;;
53775;SDS011;44276;49.534;6.378;2023-03-23T09:00:30;4.25;;;1.13;;
53775;SDS011;44276;49.534;6.378;2023-03-23T09:02:58;2.80;;;1.33;;
53775;SDS011;44276;49.534;6.378;2023-03-23T09:05:27;2.33;;;1.02;;
53775;SDS011;44276;49.534;6.378;2023-03-23T09:07:55;2.35;;;1.30;;
53775;SDS011;44276;49.534;6.378;2023-03-23T09:10:24;0.60;;;0.50;;
53775;SDS011;44276;49.534;6.378;2023-03-23T09:12:53;2.05;;;0.75;;
53775;SDS011;44276;49.534;6.378;2023-03-23T09:15:21;2.47;;;0.80;;
53775;SDS011;44276;49.534;6.378;2023-03-23T09:17:51;2.08;;;0.90;;
53775;SDS011;44276;49.534;6.378;2023-03-23T09:20:20;2.97;;;1.15;;
53775;SDS011;44276;49.534;6.378;2023-03-23T09:22:53;1.73;;;0.95;;
53775;SDS011;44276;49.534;6.378;2023-03-23T09:25:24;2.05;;;1.15;;
53775;SDS011;44276;49.534;6.378;2023-03-23T09:27:54;1.17;;;0.63;;
53775;SDS011;44276;49.534;6.378;2023-03-23T09:30:25;2.70;;;1.10;;
53775;SDS011;44276;49.534;6.378;2023-03-23T09:32:55;1.20;;;0.70;;
53775;SDS011;44276;49.534;6.378;2023-03-23T09:35:22;2.40;;;1.00;;
53775;SDS011;44276;49.534;6.378;2023-03-23T09:37:52;1.48;;;1.00;;
53775;SDS011;44276;49.534;6.378;2023-03-23T09:40:21;2.10;;;0.90;;
53775;SDS011;44276;49.534;6.378;2023-03-23T09:42:54;0.70;;;0.52;;
53775;SDS011;44276;49.534;6.378;2023-03-23T09:45:37;4.50;;;1.40;;
53775;SDS011;44276;49.534;6.378;2023-03-23T09:48:24;0.93;;;0.70;;
53775;SDS011;44276;49.534;6.378;2023-03-23T09:51:07;5.15;;;2.05;;
53775;SDS011;44276;49.534;6.378;2023-03-23T09:53:48;3.00;;;0.60;;
53775;SDS011;44276;49.534;6.378;2023-03-23T09:56:21;2.83;;;0.68;;
53775;SDS011;44276;49.534;6.378;2023-03-23T10:01:33;1.73;;;1.25;;
53775;SDS011;44276;49.534;6.378;2023-03-23T10:04:07;1.77;;;0.90;;
53775;SDS011;44276;49.534;6.378;2023-03-23T10:06:43;1.45;;;0.98;;
53775;SDS011;44276;49.534;6.378;2023-03-23T10:09:15;3.60;;;0.60;;
53775;SDS011;44276;49.534;6.378;2023-03-23T10:11:50;1.27;;;0.90;;
53775;SDS011;44276;49.534;6.378;2023-03-23T10:14:41;1.40;;;0.55;;
53775;SDS011;44276;49.534;6.378;2023-03-23T10:17:23;1.02;;;0.52;;
53775;SDS011;44276;49.534;6.378;2023-03-23T10:19:58;1.02;;;0.35;;
53775;SDS011;44276;49.534;6.378;2023-03-23T10:22:45;0.73;;;0.57;;
53775;SDS011;44276;49.534;6.378;2023-03-23T10:25:21;0.88;;;0.50;;
53775;SDS011;44276;49.534;6.378;2023-03-23T10:27:55;2.03;;;1.17;;
53775;SDS011;44276;49.534;6.378;2023-03-23T10:30:31;0.98;;;0.88;;
53775;SDS011;44276;49.534;6.378;2023-03-23T10:33:05;1.92;;;1.20;;
53775;SDS011;44276;49.534;6.378;2023-03-23T10:35:39;0.80;;;0.73;;
53775;SDS011;44276;49.534;6.378;2023-03-23T10:38:16;0.82;;;0.40;;
53775;SDS011;44276;49.534;6.378;2023-03-23T10:40:55;0.95;;;0.30;;
53775;SDS011;44276;49.534;6.378;2023-03-23T10:43:28;2.05;;;0.50;;
53775;SDS011;44276;49.534;6.378;2023-03-23T10:45:57;0.30;;;0.30;;
53775;SDS011;44276;49.534;6.378;2023-03-23T10:48:29;5.97;;;1.30;;
53775;SDS011;44276;49.534;6.378;2023-03-23T10:51:04;1.23;;;0.55;;
53775;SDS011;44276;49.534;6.378;2023-03-23T10:53:42;4.30;;;0.80;;
53775;SDS011;44276;49.534;6.378;2023-03-23T10:56:21;3.88;;;1.08;;
53775;SDS011;44276;49.534;6.378;2023-03-23T10:58:50;2.50;;;0.63;;
53775;SDS011;44276;49.534;6.378;2023-03-23T11:01:18;0.88;;;0.40;;
53775;SDS011;44276;49.534;6.378;2023-03-23T11:03:59;0.85;;;0.50;;
53775;SDS011;44276;49.534;6.378;2023-03-23T11:06:27;1.60;;;0.93;;
53775;SDS011;44276;49.534;6.378;2023-03-23T11:09:01;1.00;;;0.40;;
53775;SDS011;44276;49.534;6.378;2023-03-23T11:11:41;1.45;;;0.50;;
53775;SDS011;44276;49.534;6.378;2023-03-23T11:14:15;0.40;;;0.30;;
53775;SDS011;44276;49.534;6.378;2023-03-23T11:16:49;0.73;;;0.30;;
53775;SDS011;44276;49.534;6.378;2023-03-23T11:19:24;0.65;;;0.40;;
53775;SDS011;44276;49.534;6.378;2023-03-23T11:21:54;1.02;;;0.30;;
53775;SDS011;44276;49.534;6.378;2023-03-23T11:24:31;1.58;;;0.80;;
53775;SDS011;44276;49.534;6.378;2023-03-23T11:27:04;0.73;;;0.40;;
53775;SDS011;44276;49.534;6.378;2023-03-23T11:29:36;0.73;;;0.35;;
53775;SDS011;44276;49.534;6.378;2023-03-23T11:32:17;1.80;;;1.35;;
53775;SDS011;44276;49.534;6.378;2023-03-23T11:34:48;0.60;;;0.50;;
53775;SDS011;44276;49.534;6.378;2023-03-23T11:37:24;2.65;;;0.47;;
53775;SDS011;44276;49.534;6.378;2023-03-23T11:42:36;0.95;;;0.40;;
53775;SDS011;44276;49.534;6.378;2023-03-23T11:45:14;1.58;;;0.63;;
53775;SDS011;44276;49.534;6.378;2023-03-23T11:47:51;1.40;;;0.75;;
53775;SDS011;44276;49.534;6.378;2023-03-23T11:50:30;0.90;;;0.65;;
53775;SDS011;44276;49.534;6.378;2023-03-23T11:53:02;2.05;;;1.10;;
53775;SDS011;44276;49.534;6.378;2023-03-23T11:55:50;2.45;;;0.60;;
53775;SDS011;44276;49.534;6.378;2023-03-23T11:58:29;2.53;;;0.60;;
53775;SDS011;44276;49.534;6.378;2023-03-23T12:00:58;1.40;;;0.50;;
53775;SDS011;44276;49.534;6.378;2023-03-23T12:03:49;3.25;;;1.00;;
53775;SDS011;44276;49.534;6.378;2023-03-23T12:06:32;2.38;;;1.15;;
53775;SDS011;44276;49.534;6.378;2023-03-23T12:09:18;1.73;;;0.70;;
53775;SDS011;44276;49.534;6.378;2023-03-23T12:12:06;1.38;;;0.65;;
53775;SDS011;44276;49.534;6.378;2023-03-23T12:14:46;1.38;;;0.70;;
53775;SDS011;44276;49.534;6.378;2023-03-23T12:17:29;2.90;;;0.57;;
53775;SDS011;44276;49.534;6.378;2023-03-23T12:20:13;1.92;;;1.17;;
53775;SDS011;44276;49.534;6.378;2023-03-23T12:22:57;1.58;;;0.63;;
53775;SDS011;44276;49.534;6.378;2023-03-23T12:29:02;1.42;;;0.70;;
53775;SDS011;44276;49.534;6.378;2023-03-23T12:31:59;2.60;;;0.77;;
53775;SDS011;44276;49.534;6.378;2023-03-23T12:34:50;2.30;;;1.02;;
53775;SDS011;44276;49.534;6.378;2023-03-23T12:37:28;1.88;;;0.60;;
53775;SDS011;44276;49.534;6.378;2023-03-23T12:40:19;6.07;;;1.85;;
53775;SDS011;44276;49.534;6.378;2023-03-23T12:43:19;1.77;;;0.85;;
53775;SDS011;44276;49.534;6.378;2023-03-23T12:46:01;1.00;;;0.65;;
53775;SDS011;44276;49.534;6.378;2023-03-23T12:48:48;5.82;;;0.80;;
53775;SDS011;44276;49.534;6.378;2023-03-23T12:51:24;1.70;;;0.75;;
53775;SDS011;44276;49.534;6.378;2023-03-23T12:54:08;2.30;;;0.80;;
53775;SDS011;44276;49.534;6.378;2023-03-23T12:56:45;4.80;;;0.55;;
53775;SDS011;44276;49.534;6.378;2023-03-23T12:59:22;1.25;;;0.60;;
53775;SDS011;44276;49.534;6.378;2023-03-23T13:01:59;2.00;;;1.48;;
53775;SDS011;44276;49.534;6.378;2023-03-23T13:04:40;2.03;;;0.95;;
53775;SDS011;44276;49.534;6.378;2023-03-23T13:07:12;3.38;;;0.73;;
53775;SDS011;44276;49.534;6.378;2023-03-23T13:09:49;2.70;;;0.70;;
53775;SDS011;44276;49.534;6.378;2023-03-23T13:12:24;1.10;;;0.40;;
53775;SDS011;44276;49.534;6.378;2023-03-23T13:14:56;1.98;;;0.77;;
53775;SDS011;44276;49.534;6.378;2023-03-23T13:17:35;1.73;;;0.75;;
53775;SDS011;44276;49.534;6.378;2023-03-23T13:20:27;4.00;;;1.77;;
53775;SDS011;44276;49.534;6.378;2023-03-23T13:25:55;3.42;;;0.63;;
53775;SDS011;44276;49.534;6.378;2023-03-23T13:28:27;1.05;;;0.40;;
53775;SDS011;44276;49.534;6.378;2023-03-23T13:30:58;1.48;;;0.43;;
53775;SDS011;44276;49.534;6.378;2023-03-23T13:33:30;1.65;;;0.45;;
53775;SDS011;44276;49.534;6.378;2023-03-23T13:36:08;2.63;;;1.23;;
53775;SDS011;44276;49.534;6.378;2023-03-23T13:38:39;2.28;;;1.63;;
53775;SDS011;44276;49.534;6.378;2023-03-23T13:41:19;1.83;;;0.65;;
53775;SDS011;44276;49.534;6.378;2023-03-23T13:43:51;1.17;;;0.60;;
53775;SDS011;44276;49.534;6.378;2023-03-23T13:47:04;2.78;;;0.90;;
53775;SDS011;44276;49.534;6.378;2023-03-23T13:49:46;2.13;;;0.80;;
53775;SDS011;44276;49.534;6.378;2023-03-23T13:55:19;0.88;;;0.57;;
53775;SDS011;44276;49.534;6.378;2023-03-23T13:57:57;3.13;;;0.70;;
53775;SDS011;44276;49.534;6.378;2023-03-23T14:00:47;3.80;;;0.77;;
53775;SDS011;44276;49.534;6.378;2023-03-23T14:03:18;2.30;;;0.47;;
53775;SDS011;44276;49.534;6.378;2023-03-23T14:06:01;1.00;;;0.63;;
53775;SDS011;44276;49.534;6.378;2023-03-23T14:08:39;4.80;;;0.90;;
53775;SDS011;44276;49.534;6.378;2023-03-23T14:11:11;2.17;;;1.10;;
53775;SDS011;44276;49.534;6.378;2023-03-23T14:13:57;2.88;;;0.82;;
53775;SDS011;44276;49.534;6.378;2023-03-23T14:16:36;2.55;;;1.30;;
53775;SDS011;44276;49.534;6.378;2023-03-23T14:19:13;2.03;;;0.70;;
53775;SDS011;44276;49.534;6.378;2023-03-23T14:21:49;2.88;;;0.85;;
53775;SDS011;44276;49.534;6.378;2023-03-23T14:24:22;1.27;;;0.68;;
53775;SDS011;44276;49.534;6.378;2023-03-23T14:27:01;1.95;;;0.80;;
53775;SDS011;44276;49.534;6.378;2023-03-23T14:29:36;3.28;;;1.20;;
53775;SDS011;44276;49.534;6.378;2023-03-23T14:32:04;0.98;;;0.50;;
53775;SDS011;44276;49.534;6.378;2023-03-23T14:34:34;2.90;;;0.60;;
53775;SDS011;44276;49.534;6.378;2023-03-23T14:37:02;1.63;;;0.55;;
53775;SDS011;44276;49.534;6.378;2023-03-23T14:39:32;3.13;;;0.52;;
53775;SDS011;44276;49.534;6.378;2023-03-23T14:42:03;6.18;;;0.80;;
53775;SDS011;44276;49.534;6.378;2023-03-23T14:44:34;4.57;;;0.70;;
53775;SDS011;44276;49.534;6.378;2023-03-23T14:47:09;6.50;;;1.13;;
53775;SDS011;44276;49.534;6.378;2023-03-23T14:49:46;3.65;;;0.65;;
53775;SDS011;44276;49.534;6.378;2023-03-23T14:52:14;1.88;;;0.60;;
53775;SDS011;44276;49.534;6.378;2023-03-23T14:54:45;1.30;;;0.70;;
53775;SDS011;44276;49.534;6.378;2023-03-23T14:57:13;2.30;;;0.70;;
53775;SDS011;44276;49.534;6.378;2023-03-23T14:59:42;4.13;;;0.82;;
53775;SDS011;44276;49.534;6.378;2023-03-23T15:02:12;2.03;;;0.40;;
53775;SDS011;44276;49.534;6.378;2023-03-23T15:04:45;2.10;;;0.95;;
53775;SDS011;44276;49.534;6.378;2023-03-23T15:07:16;4.80;;;2.00;;
53775;SDS011;44276;49.534;6.378;2023-03-23T15:09:45;1.33;;;0.88;;
53775;SDS011;44276;49.534;6.378;2023-03-23T15:12:18;6.22;;;1.27;;
53775;SDS011;44276;49.534;6.378;2023-03-23T15:17:21;3.58;;;0.80;;
53775;SDS011;44276;49.534;6.378;2023-03-23T15:19:52;3.88;;;0.85;;
53775;SDS011;44276;49.534;6.378;2023-03-23T15:22:22;4.00;;;0.90;;
53775;SDS011;44276;49.534;6.378;2023-03-23T15:24:53;2.78;;;0.85;;
53775;SDS011;44276;49.534;6.378;2023-03-23T15:27:39;3.17;;;0.70;;
53775;SDS011;44276;49.534;6.378;2023-03-23T15:30:14;10.65;;;1.08;;
53775;SDS011;44276;49.534;6.378;2023-03-23T15:32:59;1.75;;;1.38;;
53775;SDS011;44276;49.534;6.378;2023-03-23T15:35:32;5.93;;;2.10;;
53775;SDS011;44276;49.534;6.378;2023-03-23T15:38:03;1.00;;;0.60;;